createdAt,value
2017-12-02T00:00:17.493Z,5.02
2017-12-02T00:01:17.426Z,5.23
2017-12-02T00:02:17.362Z,5.14
2017-12-02T00:03:17.302Z,5.17
2017-12-02T00:04:17.239Z,5.22
2017-12-02T00:05:17.184Z,5.06
2017-12-02T00:06:17.129Z,5.08
2017-12-02T00:07:17.050Z,5.11
2017-12-02T00:08:16.980Z,5.09
2017-12-02T00:09:16.916Z,5.15
2017-12-02T00:10:16.856Z,5.02
2017-12-02T00:11:16.793Z,5.02
2017-12-02T00:12:16.736Z,5.12
2017-12-02T00:13:16.681Z,5.14
2017-12-02T00:14:16.603Z,5.17
2017-12-02T00:15:16.541Z,5.06
2017-12-02T00:16:16.468Z,5.15
2017-12-02T00:17:16.410Z,5.08
2017-12-02T00:18:16.346Z,5.08
2017-12-02T00:19:16.288Z,5.19
2017-12-02T00:20:16.233Z,5.14
2017-12-02T00:21:16.158Z,5.22
2017-12-02T00:22:16.091Z,5.19
2017-12-02T00:23:16.022Z,5.20
2017-12-02T00:24:15.961Z,5.20
2017-12-02T00:25:15.901Z,5.24
2017-12-02T00:26:15.841Z,5.30
2017-12-02T00:27:15.785Z,5.24
2017-12-02T00:28:15.710Z,5.32
2017-12-02T00:29:15.647Z,5.29
2017-12-02T00:30:15.576Z,5.30
2017-12-02T00:31:15.514Z,5.23
2017-12-02T00:32:15.454Z,5.23
2017-12-02T00:33:15.394Z,5.17
2017-12-02T00:34:15.337Z,5.23
2017-12-02T00:35:15.283Z,5.08
2017-12-02T00:36:15.201Z,5.14
2017-12-02T00:37:15.194Z,5.22
2017-12-02T00:38:15.069Z,5.24
2017-12-02T00:39:15.008Z,5.27
2017-12-02T00:40:14.949Z,5.27
2017-12-02T00:41:14.891Z,5.27
2017-12-02T00:42:14.834Z,5.26
2017-12-02T00:43:14.755Z,5.30
2017-12-02T00:44:14.693Z,5.22
2017-12-02T00:45:14.627Z,5.29
2017-12-02T00:46:14.560Z,5.20
2017-12-02T00:47:14.502Z,5.27
2017-12-02T00:48:14.443Z,5.23
2017-12-02T00:49:14.392Z,5.23
2017-12-02T00:50:14.311Z,5.20
2017-12-02T00:51:14.245Z,5.22
2017-12-02T00:52:14.178Z,5.19
2017-12-02T00:53:14.115Z,5.22
2017-12-02T00:54:14.055Z,5.17
2017-12-02T00:55:13.995Z,5.17
2017-12-02T00:56:13.940Z,5.11
2017-12-02T00:57:13.864Z,5.27
2017-12-02T00:58:13.799Z,5.17
2017-12-02T00:59:13.737Z,5.26
2017-12-02T01:00:13.670Z,5.20
2017-12-02T01:01:13.617Z,5.23
2017-12-02T01:02:13.546Z,5.20
2017-12-02T01:03:13.501Z,5.19
2017-12-02T01:04:13.437Z,5.26
2017-12-02T01:05:13.354Z,5.27
2017-12-02T01:06:13.291Z,5.23
2017-12-02T01:07:13.222Z,5.24
2017-12-02T01:08:13.163Z,5.29
2017-12-02T01:09:13.100Z,5.37
2017-12-02T01:10:13.044Z,5.24
2017-12-02T01:11:12.990Z,5.29
2017-12-02T01:12:12.910Z,5.37
2017-12-02T01:13:12.846Z,5.26
2017-12-02T01:14:12.777Z,5.29
2017-12-02T01:15:12.717Z,5.24
2017-12-02T01:16:12.662Z,5.24
2017-12-02T01:17:12.599Z,5.27
2017-12-02T01:18:12.540Z,5.26
2017-12-02T01:19:12.463Z,5.29
2017-12-02T01:20:12.409Z,5.29
2017-12-02T01:21:12.332Z,5.29
2017-12-02T01:22:12.272Z,5.29
2017-12-02T01:23:12.209Z,5.29
2017-12-02T01:24:12.152Z,5.23
2017-12-02T01:25:12.100Z,5.24
2017-12-02T01:26:12.038Z,5.26
2017-12-02T01:27:11.962Z,5.27
2017-12-02T01:28:11.893Z,5.30
2017-12-02T01:29:11.841Z,5.32
2017-12-02T01:30:11.762Z,5.22
2017-12-02T01:31:11.703Z,5.29
2017-12-02T01:32:11.646Z,5.27
2017-12-02T01:33:11.597Z,5.37
2017-12-02T01:34:11.509Z,5.27
2017-12-02T01:35:11.447Z,5.42
2017-12-02T01:36:11.386Z,5.26
2017-12-02T01:37:11.317Z,5.32
2017-12-02T01:38:11.256Z,5.41
2017-12-02T01:39:11.198Z,5.24
2017-12-02T01:40:11.142Z,5.20
2017-12-02T01:41:11.065Z,5.24
2017-12-02T01:42:11.002Z,5.26
2017-12-02T01:43:10.934Z,5.35
2017-12-02T01:44:10.873Z,5.37
2017-12-02T01:45:10.812Z,5.33
2017-12-02T01:46:10.750Z,5.37
2017-12-02T01:47:10.695Z,5.29
2017-12-02T01:48:10.640Z,5.32
2017-12-02T01:49:10.550Z,5.42
2017-12-02T01:50:10.492Z,5.30
2017-12-02T01:51:10.425Z,5.30
2017-12-02T01:52:10.365Z,5.27
2017-12-02T01:53:10.303Z,5.29
2017-12-02T01:54:10.247Z,5.26
2017-12-02T01:55:10.192Z,5.23
2017-12-02T01:56:10.112Z,5.20
2017-12-02T01:57:10.051Z,5.24
2017-12-02T01:58:09.978Z,5.17
2017-12-02T01:59:09.919Z,5.19
2017-12-02T02:00:09.858Z,5.14
2017-12-02T02:01:09.803Z,5.14
2017-12-02T02:02:09.745Z,5.12
2017-12-02T02:03:09.666Z,5.23
2017-12-02T02:04:09.620Z,5.20
2017-12-02T02:05:09.533Z,5.15
2017-12-02T02:06:09.473Z,5.26
2017-12-02T02:07:09.412Z,5.22
2017-12-02T02:08:09.354Z,5.22
2017-12-02T02:09:09.296Z,5.17
2017-12-02T02:10:09.221Z,5.22
2017-12-02T02:11:09.159Z,5.14
2017-12-02T02:12:09.098Z,5.14
2017-12-02T02:13:09.025Z,5.20
2017-12-02T02:14:08.966Z,5.20
2017-12-02T02:15:08.904Z,5.22
2017-12-02T02:16:08.849Z,5.17
2017-12-02T02:17:08.794Z,5.23
2017-12-02T02:18:08.711Z,5.23
2017-12-02T02:19:08.650Z,5.26
2017-12-02T02:20:08.580Z,5.14
2017-12-02T02:21:08.519Z,5.14
2017-12-02T02:22:08.480Z,5.11
2017-12-02T02:23:08.401Z,5.05
2017-12-02T02:24:08.346Z,5.12
2017-12-02T02:25:08.269Z,5.08
2017-12-02T02:26:08.202Z,5.12
2017-12-02T02:27:08.139Z,5.14
2017-12-02T02:28:08.074Z,5.08
2017-12-02T02:29:08.013Z,5.19
2017-12-02T02:30:07.955Z,5.23
2017-12-02T02:31:07.901Z,5.15
2017-12-02T02:32:07.824Z,5.12
2017-12-02T02:33:07.760Z,5.17
2017-12-02T02:34:07.689Z,5.12
2017-12-02T02:35:07.627Z,5.14
2017-12-02T02:36:07.566Z,5.17
2017-12-02T02:37:07.506Z,5.24
2017-12-02T02:38:07.451Z,5.14
2017-12-02T02:39:07.375Z,5.20
2017-12-02T02:40:07.307Z,5.17
2017-12-02T02:41:07.243Z,5.17
2017-12-02T02:42:07.182Z,5.15
2017-12-02T02:43:07.121Z,5.17
2017-12-02T02:44:07.056Z,5.06
2017-12-02T02:45:07.003Z,5.20
2017-12-02T02:46:06.949Z,5.15
2017-12-02T02:47:06.866Z,5.11
2017-12-02T02:48:06.807Z,5.14
2017-12-02T02:49:06.739Z,5.19
2017-12-02T02:50:06.672Z,5.14
2017-12-02T02:51:06.611Z,5.05
2017-12-02T02:52:06.555Z,5.17
2017-12-02T02:53:06.500Z,5.17
2017-12-02T02:54:06.420Z,5.08
2017-12-02T02:55:06.355Z,5.15
2017-12-02T02:56:06.287Z,5.12
2017-12-02T02:57:06.227Z,5.17
2017-12-02T02:58:06.165Z,5.17
2017-12-02T02:59:06.107Z,5.08
2017-12-02T03:00:06.052Z,5.09
2017-12-02T03:01:05.973Z,5.15
2017-12-02T03:02:05.913Z,5.06
2017-12-02T03:03:05.854Z,5.06
2017-12-02T03:04:05.782Z,5.05
2017-12-02T03:05:05.718Z,5.02
2017-12-02T03:06:05.659Z,5.06
2017-12-02T03:07:05.604Z,5.12
2017-12-02T03:08:05.549Z,5.02
2017-12-02T03:09:05.463Z,5.05
2017-12-02T03:10:05.394Z,5.08
2017-12-02T03:11:05.339Z,5.04
2017-12-02T03:12:05.272Z,5.08
2017-12-02T03:13:05.216Z,5.05
2017-12-02T03:14:05.163Z,5.08
2017-12-02T03:15:05.081Z,5.06
2017-12-02T03:16:05.019Z,5.11
2017-12-02T03:17:04.948Z,5.04
2017-12-02T03:18:04.888Z,5.15
2017-12-02T03:19:04.824Z,5.15
2017-12-02T03:20:04.766Z,5.15
2017-12-02T03:21:04.709Z,5.12
2017-12-02T03:22:04.653Z,5.22
2017-12-02T03:23:04.570Z,5.20
2017-12-02T03:24:04.514Z,5.23
2017-12-02T03:25:04.439Z,5.30
2017-12-02T03:26:04.380Z,5.29
2017-12-02T03:27:04.317Z,5.37
2017-12-02T03:28:04.262Z,5.38
2017-12-02T03:29:04.206Z,5.29
2017-12-02T03:30:04.130Z,5.23
2017-12-02T03:31:04.064Z,5.35
2017-12-02T03:32:03.993Z,5.35
2017-12-02T03:33:03.934Z,5.35
2017-12-02T03:34:03.872Z,5.41
2017-12-02T03:35:03.814Z,5.49
2017-12-02T03:36:03.759Z,5.47
2017-12-02T03:37:03.680Z,5.42
2017-12-02T03:38:03.616Z,5.44
2017-12-02T03:39:03.548Z,5.42
2017-12-02T03:40:03.498Z,5.47
2017-12-02T03:41:03.424Z,5.47
2017-12-02T03:42:03.367Z,5.42
2017-12-02T03:43:03.310Z,5.41
2017-12-02T03:44:03.238Z,5.41
2017-12-02T03:45:03.173Z,5.48
2017-12-02T03:46:03.106Z,5.35
2017-12-02T03:47:03.039Z,5.44
2017-12-02T03:48:02.981Z,5.42
2017-12-02T03:49:02.918Z,5.33
2017-12-02T03:50:02.863Z,5.37
2017-12-02T03:51:02.808Z,5.29
2017-12-02T03:52:02.729Z,5.29
2017-12-02T03:53:02.668Z,5.38
2017-12-02T03:54:02.594Z,5.33
2017-12-02T03:55:02.535Z,5.27
2017-12-02T03:56:02.477Z,5.38
2017-12-02T03:57:02.421Z,5.41
2017-12-02T03:58:02.360Z,5.37
2017-12-02T03:59:02.284Z,5.29
2017-12-02T04:00:02.220Z,5.23
2017-12-02T04:01:02.149Z,5.29
2017-12-02T04:02:02.093Z,5.19
2017-12-02T04:03:02.029Z,5.23
2017-12-02T04:04:01.972Z,5.26
2017-12-02T04:05:01.913Z,5.19
2017-12-02T04:06:01.858Z,5.23
2017-12-02T04:07:01.776Z,5.23
2017-12-02T04:08:01.717Z,5.22
2017-12-02T04:09:01.656Z,5.20
2017-12-02T04:10:01.583Z,5.24
2017-12-02T04:11:01.522Z,5.26
2017-12-02T04:12:01.466Z,5.26
2017-12-02T04:13:01.410Z,5.41
2017-12-02T04:14:01.330Z,5.38
2017-12-02T04:15:01.274Z,5.29
2017-12-02T04:16:01.258Z,5.30
2017-12-02T04:17:01.136Z,5.42
2017-12-02T04:18:01.078Z,5.47
2017-12-02T04:19:01.010Z,5.47
2017-12-02T04:20:00.962Z,5.48
2017-12-02T04:21:00.886Z,5.41
2017-12-02T04:22:00.828Z,5.42
2017-12-02T04:23:00.755Z,5.45
2017-12-02T04:24:00.691Z,5.44
2017-12-02T04:25:00.631Z,5.48
2017-12-02T04:26:00.571Z,5.41
2017-12-02T04:27:00.515Z,5.38
2017-12-02T04:28:00.460Z,5.48
2017-12-02T04:29:00.378Z,5.44
2017-12-02T04:30:00.315Z,5.41
2017-12-02T04:31:00.247Z,5.48
2017-12-02T04:32:00.187Z,5.44
2017-12-02T04:33:00.124Z,5.52
2017-12-02T04:34:00.067Z,5.51
2017-12-02T04:34:59.996Z,5.55
2017-12-02T04:35:59.934Z,5.55
2017-12-02T04:36:59.879Z,5.56
2017-12-02T04:37:59.802Z,5.58
2017-12-02T04:38:59.739Z,5.55
2017-12-02T04:39:59.682Z,5.55
2017-12-02T04:40:59.621Z,5.59
2017-12-02T04:41:59.566Z,5.55
2017-12-02T04:42:59.509Z,5.55
2017-12-02T04:43:59.433Z,5.55
2017-12-02T04:44:59.362Z,5.60
2017-12-02T04:45:59.295Z,5.60
2017-12-02T04:46:59.237Z,5.60
2017-12-02T04:47:59.174Z,5.52
2017-12-02T04:48:59.116Z,5.60
2017-12-02T04:49:59.048Z,5.63
2017-12-02T04:50:58.983Z,5.48
2017-12-02T04:51:58.921Z,5.44
2017-12-02T04:52:58.856Z,5.41
2017-12-02T04:53:58.790Z,5.38
2017-12-02T04:54:58.729Z,5.32
2017-12-02T04:55:58.673Z,5.40
2017-12-02T04:56:58.614Z,5.41
2017-12-02T04:57:58.538Z,5.40
2017-12-02T04:58:58.475Z,5.27
2017-12-02T04:59:58.405Z,5.37
2017-12-02T05:00:58.344Z,5.40
2017-12-02T05:01:58.280Z,5.37
2017-12-02T05:02:58.224Z,5.44
2017-12-02T05:03:58.166Z,5.42
2017-12-02T05:04:58.111Z,5.35
2017-12-02T05:05:58.030Z,5.23
2017-12-02T05:06:57.967Z,5.23
2017-12-02T05:07:57.903Z,5.26
2017-12-02T05:08:57.838Z,5.32
2017-12-02T05:09:57.777Z,5.38
2017-12-02T05:10:57.719Z,5.35
2017-12-02T05:11:57.663Z,5.29
2017-12-02T05:12:57.584Z,5.37
2017-12-02T05:13:57.523Z,5.41
2017-12-02T05:14:57.454Z,5.47
2017-12-02T05:15:57.392Z,5.41
2017-12-02T05:16:57.332Z,5.40
2017-12-02T05:17:57.271Z,5.42
2017-12-02T05:18:57.215Z,5.42
2017-12-02T05:19:57.161Z,5.41
2017-12-02T05:20:57.074Z,5.47
2017-12-02T05:21:57.016Z,5.42
2017-12-02T05:22:56.946Z,5.48
2017-12-02T05:23:56.893Z,5.42
2017-12-02T05:24:56.825Z,5.37
2017-12-02T05:25:56.768Z,5.27
2017-12-02T05:26:56.713Z,5.32
2017-12-02T05:27:56.635Z,5.32
2017-12-02T05:28:56.562Z,5.23
2017-12-02T05:29:56.526Z,5.23
2017-12-02T05:30:56.441Z,5.23
2017-12-02T05:31:56.379Z,5.32
2017-12-02T05:32:56.321Z,5.27
2017-12-02T05:33:56.265Z,5.29
2017-12-02T05:34:56.189Z,5.23
2017-12-02T05:35:56.124Z,5.32
2017-12-02T05:36:56.056Z,5.26
2017-12-02T05:37:55.994Z,5.20
2017-12-02T05:38:55.935Z,5.19
2017-12-02T05:39:55.873Z,5.24
2017-12-02T05:40:55.817Z,5.22
2017-12-02T05:41:55.763Z,5.23
2017-12-02T05:42:55.680Z,5.20
2017-12-02T05:43:55.624Z,5.23
2017-12-02T05:44:55.547Z,5.29
2017-12-02T05:45:55.488Z,5.22
2017-12-02T05:46:55.426Z,5.26
2017-12-02T05:47:55.370Z,5.26
2017-12-02T05:48:55.314Z,5.32
2017-12-02T05:49:55.237Z,5.32
2017-12-02T05:50:55.170Z,5.14
2017-12-02T05:51:55.102Z,5.19
2017-12-02T05:52:55.041Z,5.14
2017-12-02T05:53:54.980Z,5.17
2017-12-02T05:54:54.922Z,5.22
2017-12-02T05:55:54.868Z,5.17
2017-12-02T05:56:54.788Z,5.22
2017-12-02T05:57:54.726Z,5.14
2017-12-02T05:58:54.657Z,5.11
2017-12-02T05:59:54.603Z,5.15
2017-12-02T06:00:54.534Z,5.23
2017-12-02T06:01:54.476Z,5.22
2017-12-02T06:02:54.419Z,5.22
2017-12-02T06:03:54.343Z,5.22
2017-12-02T06:04:54.280Z,5.27
2017-12-02T06:05:54.217Z,5.30
2017-12-02T06:06:54.149Z,5.22
2017-12-02T06:07:54.089Z,5.24
2017-12-02T06:08:54.029Z,5.23
2017-12-02T06:09:53.972Z,5.19
2017-12-02T06:10:53.916Z,5.15
2017-12-02T06:11:53.839Z,5.14
2017-12-02T06:12:53.772Z,5.20
2017-12-02T06:13:53.702Z,5.19
2017-12-02T06:14:53.644Z,5.20
2017-12-02T06:15:53.582Z,5.22
2017-12-02T06:16:53.523Z,5.23
2017-12-02T06:17:53.469Z,5.27
2017-12-02T06:18:53.393Z,5.24
2017-12-02T06:19:53.327Z,5.23
2017-12-02T06:20:53.268Z,5.19
2017-12-02T06:21:53.197Z,5.09
2017-12-02T06:22:53.136Z,5.02
2017-12-02T06:23:53.080Z,5.17
2017-12-02T06:24:53.022Z,5.12
2017-12-02T06:25:52.945Z,5.17
2017-12-02T06:26:52.881Z,5.17
2017-12-02T06:27:52.812Z,5.19
2017-12-02T06:28:52.749Z,5.15
2017-12-02T06:29:52.690Z,5.22
2017-12-02T06:30:52.670Z,5.19
2017-12-02T06:31:52.573Z,5.17
2017-12-02T06:32:52.499Z,5.09
2017-12-02T06:33:52.434Z,5.12
2017-12-02T06:34:52.367Z,4.99
2017-12-02T06:35:52.301Z,5.09
2017-12-02T06:36:52.243Z,5.04
2017-12-02T06:37:52.180Z,5.04
2017-12-02T06:38:52.126Z,5.05
2017-12-02T06:39:52.071Z,5.11
2017-12-02T06:40:51.989Z,5.11
2017-12-02T06:41:51.924Z,5.05
2017-12-02T06:42:51.859Z,5.08
2017-12-02T06:43:51.798Z,5.12
2017-12-02T06:44:51.738Z,5.11
2017-12-02T06:45:51.677Z,5.06
2017-12-02T06:46:51.623Z,5.17
2017-12-02T06:47:51.544Z,5.05
2017-12-02T06:48:51.478Z,5.06
2017-12-02T06:49:51.410Z,5.06
2017-12-02T06:50:51.350Z,5.02
2017-12-02T06:51:51.288Z,5.04
2017-12-02T06:52:51.233Z,5.08
2017-12-02T06:53:51.176Z,5.08
2017-12-02T06:54:51.096Z,5.02
2017-12-02T06:55:51.033Z,5.06
2017-12-02T06:56:50.964Z,5.08
2017-12-02T06:57:50.905Z,5.09
2017-12-02T06:58:50.849Z,5.06
2017-12-02T06:59:50.783Z,5.05
2017-12-02T07:00:50.728Z,5.09
2017-12-02T07:01:50.652Z,5.06
2017-12-02T07:02:50.586Z,5.04
2017-12-02T07:03:50.516Z,5.06
2017-12-02T07:04:50.455Z,5.06
2017-12-02T07:05:50.395Z,5.09
2017-12-02T07:06:50.336Z,5.05
2017-12-02T07:07:50.279Z,5.04
2017-12-02T07:08:50.203Z,5.02
2017-12-02T07:09:50.141Z,4.88
2017-12-02T07:10:50.070Z,4.90
2017-12-02T07:11:50.009Z,4.94
2017-12-02T07:12:49.947Z,4.96
2017-12-02T07:13:49.888Z,4.99
2017-12-02T07:14:49.832Z,5.06
2017-12-02T07:15:49.759Z,4.96
2017-12-02T07:16:49.691Z,5.04
2017-12-02T07:17:49.625Z,4.93
2017-12-02T07:18:49.561Z,4.80
2017-12-02T07:19:49.500Z,4.84
2017-12-02T07:20:49.446Z,4.86
2017-12-02T07:21:49.384Z,4.71
2017-12-02T07:22:49.329Z,4.74
2017-12-02T07:23:49.250Z,4.83
2017-12-02T07:24:49.181Z,4.75
2017-12-02T07:25:49.115Z,4.67
2017-12-02T07:26:49.055Z,4.75
2017-12-02T07:27:48.993Z,4.75
2017-12-02T07:28:48.935Z,4.77
2017-12-02T07:29:48.884Z,4.80
2017-12-02T07:30:48.801Z,4.79
2017-12-02T07:31:48.737Z,4.93
2017-12-02T07:32:48.672Z,4.91
2017-12-02T07:33:48.607Z,4.91
2017-12-02T07:34:48.545Z,4.91
2017-12-02T07:35:48.491Z,4.90
2017-12-02T07:36:48.433Z,4.91
2017-12-02T07:37:48.352Z,4.93
2017-12-02T07:38:48.291Z,4.93
2017-12-02T07:39:48.220Z,5.08
2017-12-02T07:40:48.159Z,5.08
2017-12-02T07:41:48.103Z,5.02
2017-12-02T07:42:48.040Z,5.09
2017-12-02T07:43:47.988Z,5.12
2017-12-02T07:44:47.908Z,5.02
2017-12-02T07:45:47.843Z,5.05
2017-12-02T07:46:47.775Z,4.96
2017-12-02T07:47:47.715Z,5.06
2017-12-02T07:48:47.652Z,5.04
2017-12-02T07:49:47.589Z,5.04
2017-12-02T07:50:47.538Z,5.01
2017-12-02T07:51:47.460Z,5.12
2017-12-02T07:52:47.393Z,5.15
2017-12-02T07:53:47.328Z,5.22
2017-12-02T07:54:47.268Z,5.15
2017-12-02T07:55:47.208Z,5.29
2017-12-02T07:56:47.157Z,5.42
2017-12-02T07:57:47.089Z,5.35
2017-12-02T07:58:47.035Z,5.49
2017-12-02T07:59:46.955Z,5.52
2017-12-02T08:00:46.893Z,5.56
2017-12-02T08:01:46.864Z,5.63
2017-12-02T08:02:46.762Z,5.74
2017-12-02T08:03:46.699Z,5.59
2017-12-02T08:04:46.642Z,5.51
2017-12-02T08:05:46.588Z,5.77
2017-12-02T08:06:46.512Z,5.67
2017-12-02T08:07:46.446Z,5.78
2017-12-02T08:08:46.375Z,5.75
2017-12-02T08:09:46.316Z,5.84
2017-12-02T08:10:46.256Z,5.67
2017-12-02T08:11:46.193Z,5.60
2017-12-02T08:12:46.140Z,5.51
2017-12-02T08:13:46.087Z,5.49
2017-12-02T08:14:46.005Z,5.38
2017-12-02T08:15:45.944Z,5.41
2017-12-02T08:16:45.871Z,5.41
2017-12-02T08:17:45.811Z,5.29
2017-12-02T08:18:45.748Z,5.37
2017-12-02T08:19:45.692Z,5.26
2017-12-02T08:20:45.637Z,5.29
2017-12-02T08:21:45.560Z,5.26
2017-12-02T08:22:45.498Z,5.23
2017-12-02T08:23:45.434Z,5.33
2017-12-02T08:24:45.366Z,5.38
2017-12-02T08:25:45.306Z,5.12
2017-12-02T08:26:45.246Z,5.26
2017-12-02T08:27:45.189Z,5.11
2017-12-02T08:28:45.116Z,4.88
2017-12-02T08:29:45.052Z,4.84
2017-12-02T08:30:44.987Z,4.84
2017-12-02T08:31:44.924Z,4.90
2017-12-02T08:32:44.858Z,5.08
2017-12-02T08:33:44.801Z,5.09
2017-12-02T08:34:44.741Z,4.90
2017-12-02T08:35:44.687Z,4.84
2017-12-02T08:36:44.608Z,4.83
2017-12-02T08:37:44.545Z,4.90
2017-12-02T08:38:44.476Z,5.02
2017-12-02T08:39:44.415Z,5.06
2017-12-02T08:40:44.353Z,5.15
2017-12-02T08:41:44.293Z,5.12
2017-12-02T08:42:44.270Z,5.20
2017-12-02T08:43:44.163Z,5.24
2017-12-02T08:44:44.103Z,5.27
2017-12-02T08:45:44.038Z,5.33
2017-12-02T08:46:43.968Z,5.23
2017-12-02T08:47:43.908Z,5.26
2017-12-02T08:48:43.847Z,5.37
2017-12-02T08:49:43.779Z,5.44
2017-12-02T08:50:43.719Z,5.51
2017-12-02T08:51:43.659Z,5.41
2017-12-02T08:52:43.592Z,5.33
2017-12-02T08:53:43.524Z,5.52
2017-12-02T08:54:43.463Z,5.65
2017-12-02T08:55:43.406Z,5.80
2017-12-02T08:56:43.345Z,5.78
2017-12-02T08:57:43.274Z,5.78
2017-12-02T08:58:43.213Z,5.96
2017-12-02T08:59:43.149Z,6.05
2017-12-02T09:00:43.081Z,6.08
2017-12-02T09:01:43.038Z,6.24
2017-12-02T09:02:42.960Z,6.45
2017-12-02T09:03:42.902Z,6.51
2017-12-02T09:04:42.842Z,6.57
2017-12-02T09:05:42.789Z,6.69
2017-12-02T09:06:42.710Z,6.68
2017-12-02T09:07:42.646Z,6.82
2017-12-02T09:08:42.591Z,7.15
2017-12-02T09:09:42.515Z,7.36
2017-12-02T09:10:42.457Z,7.48
2017-12-02T09:11:42.408Z,7.57
2017-12-02T09:12:42.349Z,7.70
2017-12-02T09:13:42.280Z,7.70
2017-12-02T09:14:42.214Z,7.66
2017-12-02T09:15:42.175Z,7.76
2017-12-02T09:16:42.089Z,7.81
2017-12-02T09:17:42.034Z,7.86
2017-12-02T09:18:41.975Z,7.96
2017-12-02T09:19:41.902Z,8.09
2017-12-02T09:20:41.838Z,8.21
2017-12-02T09:21:41.782Z,8.46
2017-12-02T09:22:41.722Z,8.67
2017-12-02T09:23:41.651Z,8.82
2017-12-02T09:24:41.607Z,9.04
2017-12-02T09:25:41.537Z,8.86
2017-12-02T09:26:41.467Z,8.88
2017-12-02T09:27:41.417Z,8.65
2017-12-02T09:28:41.345Z,8.37
2017-12-02T09:29:41.285Z,8.13
2017-12-02T09:30:41.241Z,8.14
2017-12-02T09:31:41.181Z,7.88
2017-12-02T09:32:41.112Z,7.94
2017-12-02T09:33:41.064Z,7.74
2017-12-02T09:34:41.004Z,7.91
2017-12-02T09:35:40.927Z,7.92
2017-12-02T09:36:40.869Z,7.84
2017-12-02T09:37:40.806Z,7.79
2017-12-02T09:38:40.739Z,7.69
2017-12-02T09:39:40.681Z,7.60
2017-12-02T09:40:40.632Z,7.63
2017-12-02T09:41:40.555Z,7.50
2017-12-02T09:42:40.505Z,7.67
2017-12-02T09:43:40.449Z,7.69
2017-12-02T09:44:40.399Z,7.66
2017-12-02T09:45:40.311Z,7.74
2017-12-02T09:46:40.266Z,7.71
2017-12-02T09:47:40.200Z,7.77
2017-12-02T09:48:40.141Z,7.69
2017-12-02T09:49:40.084Z,7.48
2017-12-02T09:50:40.015Z,7.52
2017-12-02T09:51:39.953Z,7.47
2017-12-02T09:52:39.894Z,7.47
2017-12-02T09:53:39.834Z,7.47
2017-12-02T09:54:39.780Z,7.42
2017-12-02T09:55:39.805Z,7.47
2017-12-02T09:56:39.674Z,7.41
2017-12-02T09:57:39.605Z,7.42
2017-12-02T09:58:39.527Z,7.48
2017-12-02T09:59:39.468Z,7.48
2017-12-02T10:00:39.456Z,7.67
2017-12-02T10:01:39.436Z,7.67
2017-12-02T10:02:39.315Z,7.62
2017-12-02T10:03:39.245Z,7.62
2017-12-02T10:04:39.177Z,7.45
2017-12-02T10:05:39.175Z,7.42
2017-12-02T10:06:39.059Z,7.44
2017-12-02T10:07:38.980Z,7.15
2017-12-02T10:08:38.934Z,7.27
2017-12-02T10:09:38.874Z,7.23
2017-12-02T10:10:38.847Z,7.16
2017-12-02T10:11:38.745Z,7.12
2017-12-02T10:12:38.695Z,7.01
2017-12-02T10:13:38.675Z,6.89
2017-12-02T10:14:38.580Z,6.79
2017-12-02T10:15:38.523Z,6.89
2017-12-02T10:16:38.446Z,6.94
2017-12-02T10:17:38.416Z,6.99
2017-12-02T10:18:38.302Z,7.00
2017-12-02T10:19:38.259Z,7.05
2017-12-02T10:20:38.206Z,7.12
2017-12-02T10:21:38.202Z,7.15
2017-12-02T10:22:38.111Z,7.08
2017-12-02T10:23:38.009Z,7.09
2017-12-02T10:24:38.052Z,7.15
2017-12-02T10:25:37.927Z,6.96
2017-12-02T10:26:37.827Z,7.04
2017-12-02T10:27:37.780Z,7.07
2017-12-02T10:28:37.705Z,7.12
2017-12-02T10:29:37.643Z,7.29
2017-12-02T10:30:37.592Z,7.33
2017-12-02T10:31:37.533Z,7.36
2017-12-02T10:32:37.471Z,7.37
2017-12-02T10:33:37.407Z,7.33
2017-12-02T10:34:37.359Z,7.33
2017-12-02T10:35:37.317Z,7.26
2017-12-02T10:36:37.260Z,7.34
2017-12-02T10:37:37.165Z,7.42
2017-12-02T10:38:37.078Z,7.42
2017-12-02T10:39:37.024Z,7.44
2017-12-02T10:40:36.951Z,7.50
2017-12-02T10:41:36.922Z,7.39
2017-12-02T10:42:36.876Z,7.44
2017-12-02T10:43:36.784Z,7.45
2017-12-02T10:44:36.718Z,7.42
2017-12-02T10:45:36.762Z,7.32
2017-12-02T10:46:36.661Z,7.34
2017-12-02T10:47:36.568Z,7.19
2017-12-02T10:48:36.475Z,7.30
2017-12-02T10:49:36.427Z,7.30
2017-12-02T10:50:36.389Z,7.19
2017-12-02T10:51:36.322Z,7.27
2017-12-02T10:52:36.229Z,7.21
2017-12-02T10:53:36.185Z,7.24
2017-12-02T10:54:36.114Z,7.14
2017-12-02T10:55:36.057Z,7.15
2017-12-02T10:56:36.026Z,7.07
2017-12-02T10:57:35.917Z,7.14
2017-12-02T10:58:35.951Z,7.07
2017-12-02T10:59:35.818Z,6.99
2017-12-02T11:00:35.752Z,7.09
2017-12-02T11:01:35.677Z,7.09
2017-12-02T11:02:35.626Z,7.01
2017-12-02T11:03:35.560Z,7.07
2017-12-02T11:04:35.500Z,7.05
2017-12-02T11:05:35.457Z,6.96
2017-12-02T11:06:35.398Z,6.93
2017-12-02T11:07:35.332Z,6.97
2017-12-02T11:08:35.246Z,6.99
2017-12-02T11:09:35.184Z,7.04
2017-12-02T11:10:35.145Z,7.05
2017-12-02T11:11:35.133Z,6.96
2017-12-02T11:12:35.003Z,6.99
2017-12-02T11:13:34.974Z,6.78
2017-12-02T11:14:34.901Z,6.83
2017-12-02T11:15:34.839Z,6.76
2017-12-02T11:16:34.761Z,6.86
2017-12-02T11:17:34.748Z,6.83
2017-12-02T11:18:34.696Z,6.81
2017-12-02T11:19:34.712Z,6.75
2017-12-02T11:20:34.526Z,6.69
2017-12-02T11:21:34.457Z,6.72
2017-12-02T11:22:34.468Z,6.78
2017-12-02T11:23:34.865Z,6.64
2017-12-02T11:24:34.368Z,6.65
2017-12-02T11:25:34.191Z,6.79
2017-12-02T11:26:34.183Z,6.78
2017-12-02T11:27:34.141Z,6.75
2017-12-02T11:28:34.016Z,6.78
2017-12-02T11:29:33.966Z,6.75
2017-12-02T11:30:33.897Z,6.78
2017-12-02T11:31:33.844Z,6.83
2017-12-02T11:32:33.930Z,6.94
2017-12-02T11:33:34.055Z,6.90
2017-12-02T11:34:33.765Z,7.04
2017-12-02T11:35:33.629Z,7.08
2017-12-02T11:36:33.525Z,7.15
2017-12-02T11:37:33.496Z,7.08
2017-12-02T11:38:33.416Z,6.97
2017-12-02T11:39:33.363Z,6.99
2017-12-02T11:40:33.336Z,7.14
2017-12-02T11:41:33.267Z,7.09
2017-12-02T11:43:33.235Z,6.90
2017-12-02T11:44:33.455Z,6.93
2017-12-02T11:45:33.098Z,6.89
2017-12-02T11:46:32.962Z,6.97
2017-12-02T11:47:32.877Z,6.64
2017-12-02T11:48:32.786Z,6.73
2017-12-02T11:49:32.749Z,6.81
2017-12-02T11:50:32.693Z,6.78
2017-12-02T11:51:32.675Z,6.81
2017-12-02T11:52:32.659Z,6.76
2017-12-02T11:53:32.551Z,6.83
2017-12-02T11:54:32.498Z,6.82
2017-12-02T11:55:32.363Z,6.93
2017-12-02T11:56:32.365Z,6.99
2017-12-02T11:57:32.462Z,7.11
2017-12-02T11:58:32.187Z,6.96
2017-12-02T11:59:32.188Z,7.09
2017-12-02T12:00:32.076Z,6.99
2017-12-02T12:01:32.051Z,6.99
2017-12-02T12:02:31.955Z,7.00
2017-12-02T12:03:31.942Z,6.97
2017-12-02T12:04:31.804Z,7.00
2017-12-02T12:05:31.778Z,6.99
2017-12-02T12:06:31.782Z,7.00
2017-12-02T12:07:31.753Z,7.00
2017-12-02T12:08:31.587Z,7.08
2017-12-02T12:09:31.497Z,7.05
2017-12-02T12:10:31.454Z,7.04
2017-12-02T12:11:31.508Z,7.00
2017-12-02T12:12:31.338Z,7.09
2017-12-02T12:13:31.268Z,7.09
2017-12-02T12:14:31.197Z,7.14
2017-12-02T12:15:31.259Z,7.18
2017-12-02T12:16:32.086Z,7.15
2017-12-02T12:17:31.034Z,7.08
2017-12-02T12:18:30.990Z,7.11
2017-12-02T12:19:30.878Z,7.01
2017-12-02T12:20:30.989Z,6.90
2017-12-02T12:21:30.853Z,6.75
2017-12-02T12:22:30.814Z,6.99
2017-12-02T12:23:30.804Z,6.86
2017-12-02T12:24:30.704Z,6.90
2017-12-02T12:25:30.546Z,6.90
2017-12-02T12:26:30.466Z,6.89
2017-12-02T12:27:30.525Z,6.97
2017-12-02T12:28:30.327Z,6.90
2017-12-02T12:29:30.366Z,6.89
2017-12-02T12:30:30.221Z,6.76
2017-12-02T12:31:30.170Z,6.68
2017-12-02T12:32:30.166Z,6.63
2017-12-02T12:33:30.095Z,6.79
2017-12-02T12:34:29.987Z,6.73
2017-12-02T12:35:29.918Z,6.68
2017-12-02T12:36:29.901Z,6.65
2017-12-02T12:37:30.085Z,6.68
2017-12-02T12:38:29.963Z,6.61
2017-12-02T12:39:29.837Z,6.55
2017-12-02T12:40:29.594Z,6.63
2017-12-02T12:41:29.617Z,6.65
2017-12-02T12:42:29.498Z,6.75
2017-12-02T12:43:29.399Z,6.69
2017-12-02T12:44:29.349Z,6.72
2017-12-02T12:45:29.298Z,6.63
2017-12-02T12:46:29.208Z,6.75
2017-12-02T12:47:29.342Z,6.60
2017-12-02T12:48:29.117Z,6.68
2017-12-02T12:49:29.036Z,6.68
2017-12-02T12:50:28.994Z,6.71
2017-12-02T12:51:28.938Z,6.79
2017-12-02T12:52:28.820Z,6.75
2017-12-02T12:53:28.948Z,6.75
2017-12-02T12:54:28.713Z,6.63
2017-12-02T12:55:28.671Z,6.53
2017-12-02T12:56:28.654Z,6.46
2017-12-02T12:57:28.562Z,6.45
2017-12-02T12:58:28.579Z,6.51
2017-12-02T12:59:28.424Z,6.65
2017-12-02T13:00:28.462Z,6.48
2017-12-02T13:01:28.272Z,6.50
2017-12-02T13:02:28.238Z,6.32
2017-12-02T13:03:28.161Z,6.42
2017-12-02T13:04:28.359Z,6.40
2017-12-02T13:05:28.074Z,6.36
2017-12-02T13:06:27.978Z,6.33
2017-12-02T13:07:27.956Z,6.36
2017-12-02T13:08:27.855Z,6.42
2017-12-02T13:09:27.800Z,6.30
2017-12-02T13:10:27.758Z,6.33
2017-12-02T13:11:27.810Z,6.45
2017-12-02T13:12:27.594Z,6.39
2017-12-02T13:13:27.525Z,6.42
2017-12-02T13:14:27.611Z,6.24
2017-12-02T13:15:27.422Z,6.25
2017-12-02T13:16:27.371Z,6.35
2017-12-02T13:17:27.280Z,6.36
2017-12-02T13:18:27.239Z,6.27